sensor_id;sensor_type;location;lat;lon;timestamp;P1;durP1;ratioP1;P2;durP2;ratioP2
75744;SDS011;64359;51.366;-0.222;2023-01-24T00:00:58;10.20;;;9.30;;
75744;SDS011;64359;51.366;-0.222;2023-01-24T00:02:03;9.50;;;8.70;;
75744;SDS011;64359;51.366;-0.222;2023-01-24T00:03:07;10.40;;;9.50;;
75744;SDS011;64359;51.366;-0.222;2023-01-24T00:04:13;10.80;;;9.80;;
75744;SDS011;64359;51.366;-0.222;2023-01-24T00:05:17;9.00;;;8.20;;
75744;SDS011;64359;51.366;-0.222;2023-01-24T00:06:22;10.50;;;9.50;;
75744;SDS011;64359;51.366;-0.222;2023-01-24T00:07:27;8.60;;;7.80;;
75744;SDS011;64359;51.366;-0.222;2023-01-24T00:08:31;9.10;;;8.20;;
75744;SDS011;64359;51.366;-0.222;2023-01-24T00:09:35;9.60;;;8.70;;
75744;SDS011;64359;51.366;-0.222;2023-01-24T00:10:40;9.60;;;8.60;;
75744;SDS011;64359;51.366;-0.222;2023-01-24T00:11:45;9.00;;;8.10;;
75744;SDS011;64359;51.366;-0.222;2023-01-24T00:12:49;9.80;;;8.30;;
75744;SDS011;64359;51.366;-0.222;2023-01-24T00:13:54;10.60;;;9.60;;
75744;SDS011;64359;51.366;-0.222;2023-01-24T00:14:58;10.10;;;9.20;;
75744;SDS011;64359;51.366;-0.222;2023-01-24T00:16:06;10.40;;;9.40;;
75744;SDS011;64359;51.366;-0.222;2023-01-24T00:17:12;9.20;;;8.30;;
75744;SDS011;64359;51.366;-0.222;2023-01-24T00:18:17;10.60;;;9.60;;
75744;SDS011;64359;51.366;-0.222;2023-01-24T00:19:21;11.20;;;10.10;;
75744;SDS011;64359;51.366;-0.222;2023-01-24T00:20:26;9.90;;;8.90;;
75744;SDS011;64359;51.366;-0.222;2023-01-24T00:21:30;8.60;;;7.70;;
75744;SDS011;64359;51.366;-0.222;2023-01-24T00:22:34;8.50;;;7.60;;
75744;SDS011;64359;51.366;-0.222;2023-01-24T00:23:39;9.90;;;8.90;;
75744;SDS011;64359;51.366;-0.222;2023-01-24T00:24:44;8.20;;;7.40;;
75744;SDS011;64359;51.366;-0.222;2023-01-24T00:25:49;9.90;;;8.90;;
75744;SDS011;64359;51.366;-0.222;2023-01-24T00:26:54;10.20;;;9.20;;
75744;SDS011;64359;51.366;-0.222;2023-01-24T00:27:58;9.70;;;8.70;;
75744;SDS011;64359;51.366;-0.222;2023-01-24T00:29:02;10.30;;;9.30;;
75744;SDS011;64359;51.366;-0.222;2023-01-24T00:30:07;9.00;;;8.10;;
75744;SDS011;64359;51.366;-0.222;2023-01-24T00:31:13;10.70;;;9.60;;
75744;SDS011;64359;51.366;-0.222;2023-01-24T00:32:18;9.50;;;8.50;;
75744;SDS011;64359;51.366;-0.222;2023-01-24T00:33:22;10.10;;;9.20;;
75744;SDS011;64359;51.366;-0.222;2023-01-24T00:34:27;10.00;;;9.10;;
75744;SDS011;64359;51.366;-0.222;2023-01-24T00:35:31;10.90;;;9.90;;
75744;SDS011;64359;51.366;-0.222;2023-01-24T00:36:36;9.10;;;8.20;;
75744;SDS011;64359;51.366;-0.222;2023-01-24T00:37:40;8.50;;;7.60;;
75744;SDS011;64359;51.366;-0.222;2023-01-24T00:38:45;9.00;;;8.10;;
75744;SDS011;64359;51.366;-0.222;2023-01-24T00:39:49;8.90;;;8.10;;
75744;SDS011;64359;51.366;-0.222;2023-01-24T00:40:53;8.30;;;7.40;;
75744;SDS011;64359;51.366;-0.222;2023-01-24T00:41:58;9.00;;;7.80;;
75744;SDS011;64359;51.366;-0.222;2023-01-24T00:43:02;10.20;;;9.20;;
75744;SDS011;64359;51.366;-0.222;2023-01-24T00:44:06;9.00;;;8.10;;
75744;SDS011;64359;51.366;-0.222;2023-01-24T00:45:11;8.70;;;7.80;;
75744;SDS011;64359;51.366;-0.222;2023-01-24T00:46:15;9.70;;;8.70;;
75744;SDS011;64359;51.366;-0.222;2023-01-24T00:47:20;10.40;;;9.40;;
75744;SDS011;64359;51.366;-0.222;2023-01-24T00:48:24;10.10;;;9.10;;
75744;SDS011;64359;51.366;-0.222;2023-01-24T00:49:29;9.80;;;8.90;;
75744;SDS011;64359;51.366;-0.222;2023-01-24T00:50:34;8.60;;;7.80;;
75744;SDS011;64359;51.366;-0.222;2023-01-24T00:51:38;9.60;;;8.60;;
75744;SDS011;64359;51.366;-0.222;2023-01-24T00:52:42;10.20;;;9.20;;
75744;SDS011;64359;51.366;-0.222;2023-01-24T00:53:47;9.90;;;9.00;;
75744;SDS011;64359;51.366;-0.222;2023-01-24T00:54:51;9.50;;;8.60;;
75744;SDS011;64359;51.366;-0.222;2023-01-24T00:55:56;8.20;;;7.50;;
75744;SDS011;64359;51.366;-0.222;2023-01-24T00:57:00;9.90;;;8.90;;
75744;SDS011;64359;51.366;-0.222;2023-01-24T00:58:04;9.00;;;8.10;;
75744;SDS011;64359;51.366;-0.222;2023-01-24T00:59:09;9.40;;;8.50;;
75744;SDS011;64359;51.366;-0.222;2023-01-24T01:00:14;8.70;;;7.70;;
75744;SDS011;64359;51.366;-0.222;2023-01-24T01:01:19;8.10;;;7.30;;
75744;SDS011;64359;51.366;-0.222;2023-01-24T01:02:23;8.20;;;7.40;;
75744;SDS011;64359;51.366;-0.222;2023-01-24T01:03:27;10.20;;;9.20;;
75744;SDS011;64359;51.366;-0.222;2023-01-24T01:04:32;10.30;;;9.30;;
75744;SDS011;64359;51.366;-0.222;2023-01-24T01:05:36;8.90;;;8.10;;
75744;SDS011;64359;51.366;-0.222;2023-01-24T01:06:41;8.60;;;7.80;;
75744;SDS011;64359;51.366;-0.222;2023-01-24T01:07:47;8.40;;;7.60;;
75744;SDS011;64359;51.366;-0.222;2023-01-24T01:08:52;9.80;;;8.80;;
75744;SDS011;64359;51.366;-0.222;2023-01-24T01:09:56;8.40;;;7.50;;
75744;SDS011;64359;51.366;-0.222;2023-01-24T01:11:00;8.90;;;7.60;;
75744;SDS011;64359;51.366;-0.222;2023-01-24T01:12:05;8.60;;;7.80;;
75744;SDS011;64359;51.366;-0.222;2023-01-24T01:13:09;8.30;;;7.40;;
75744;SDS011;64359;51.366;-0.222;2023-01-24T01:14:15;10.00;;;9.00;;
75744;SDS011;64359;51.366;-0.222;2023-01-24T01:15:20;9.20;;;8.30;;
75744;SDS011;64359;51.366;-0.222;2023-01-24T01:16:24;10.60;;;9.70;;
75744;SDS011;64359;51.366;-0.222;2023-01-24T01:17:28;9.60;;;8.70;;
75744;SDS011;64359;51.366;-0.222;2023-01-24T01:18:33;9.50;;;8.60;;
75744;SDS011;64359;51.366;-0.222;2023-01-24T01:19:38;8.80;;;7.90;;
75744;SDS011;64359;51.366;-0.222;2023-01-24T01:20:42;9.40;;;8.50;;
75744;SDS011;64359;51.366;-0.222;2023-01-24T01:21:53;10.60;;;9.60;;
75744;SDS011;64359;51.366;-0.222;2023-01-24T01:22:57;10.00;;;9.00;;
75744;SDS011;64359;51.366;-0.222;2023-01-24T01:24:02;10.10;;;9.10;;
75744;SDS011;64359;51.366;-0.222;2023-01-24T01:25:07;7.70;;;7.00;;
75744;SDS011;64359;51.366;-0.222;2023-01-24T01:26:13;9.70;;;8.80;;
75744;SDS011;64359;51.366;-0.222;2023-01-24T01:27:18;9.20;;;8.40;;
75744;SDS011;64359;51.366;-0.222;2023-01-24T01:28:22;9.90;;;8.90;;
75744;SDS011;64359;51.366;-0.222;2023-01-24T01:29:27;8.30;;;7.50;;
75744;SDS011;64359;51.366;-0.222;2023-01-24T01:30:31;8.40;;;7.50;;
75744;SDS011;64359;51.366;-0.222;2023-01-24T01:31:36;9.60;;;8.80;;
75744;SDS011;64359;51.366;-0.222;2023-01-24T01:32:40;10.70;;;9.60;;
75744;SDS011;64359;51.366;-0.222;2023-01-24T01:33:45;8.50;;;7.60;;
75744;SDS011;64359;51.366;-0.222;2023-01-24T01:34:49;8.70;;;7.90;;
75744;SDS011;64359;51.366;-0.222;2023-01-24T01:35:54;10.10;;;9.10;;
75744;SDS011;64359;51.366;-0.222;2023-01-24T01:36:58;9.70;;;8.80;;
75744;SDS011;64359;51.366;-0.222;2023-01-24T01:38:02;9.50;;;8.60;;
75744;SDS011;64359;51.366;-0.222;2023-01-24T01:39:08;8.10;;;7.30;;
75744;SDS011;64359;51.366;-0.222;2023-01-24T01:40:12;9.70;;;8.80;;
75744;SDS011;64359;51.366;-0.222;2023-01-24T01:41:17;8.80;;;8.00;;
75744;SDS011;64359;51.366;-0.222;2023-01-24T01:42:21;9.40;;;8.40;;
75744;SDS011;64359;51.366;-0.222;2023-01-24T01:43:26;8.50;;;7.70;;
75744;SDS011;64359;51.366;-0.222;2023-01-24T01:44:32;9.20;;;8.40;;
75744;SDS011;64359;51.366;-0.222;2023-01-24T01:45:50;8.50;;;7.70;;
75744;SDS011;64359;51.366;-0.222;2023-01-24T01:46:55;7.50;;;6.70;;
75744;SDS011;64359;51.366;-0.222;2023-01-24T01:48:00;9.60;;;8.60;;
75744;SDS011;64359;51.366;-0.222;2023-01-24T01:49:09;9.10;;;8.20;;
75744;SDS011;64359;51.366;-0.222;2023-01-24T01:50:23;8.80;;;7.90;;
75744;SDS011;64359;51.366;-0.222;2023-01-24T01:51:34;7.40;;;6.60;;
75744;SDS011;64359;51.366;-0.222;2023-01-24T01:52:46;8.40;;;7.50;;
75744;SDS011;64359;51.366;-0.222;2023-01-24T01:53:52;8.90;;;8.00;;
75744;SDS011;64359;51.366;-0.222;2023-01-24T01:55:01;8.80;;;8.00;;
75744;SDS011;64359;51.366;-0.222;2023-01-24T01:56:10;8.70;;;7.90;;
75744;SDS011;64359;51.366;-0.222;2023-01-24T01:57:24;7.80;;;7.00;;
75744;SDS011;64359;51.366;-0.222;2023-01-24T01:58:32;8.00;;;7.30;;
75744;SDS011;64359;51.366;-0.222;2023-01-24T01:59:37;9.00;;;8.20;;
75744;SDS011;64359;51.366;-0.222;2023-01-24T02:00:46;8.30;;;7.50;;
75744;SDS011;64359;51.366;-0.222;2023-01-24T02:01:52;7.80;;;7.10;;
75744;SDS011;64359;51.366;-0.222;2023-01-24T02:03:01;7.00;;;6.30;;
75744;SDS011;64359;51.366;-0.222;2023-01-24T02:04:29;7.40;;;6.70;;
75744;SDS011;64359;51.366;-0.222;2023-01-24T02:05:37;8.10;;;7.30;;
75744;SDS011;64359;51.366;-0.222;2023-01-24T02:06:45;9.10;;;8.30;;
75744;SDS011;64359;51.366;-0.222;2023-01-24T02:07:53;7.50;;;6.80;;
75744;SDS011;64359;51.366;-0.222;2023-01-24T02:09:02;8.30;;;7.40;;
75744;SDS011;64359;51.366;-0.222;2023-01-24T02:10:10;9.50;;;8.60;;
75744;SDS011;64359;51.366;-0.222;2023-01-24T02:11:15;8.60;;;7.80;;
75744;SDS011;64359;51.366;-0.222;2023-01-24T02:12:39;9.00;;;8.20;;
75744;SDS011;64359;51.366;-0.222;2023-01-24T02:13:45;7.50;;;6.80;;
75744;SDS011;64359;51.366;-0.222;2023-01-24T02:14:50;8.70;;;7.90;;
75744;SDS011;64359;51.366;-0.222;2023-01-24T02:16:15;8.30;;;7.40;;
75744;SDS011;64359;51.366;-0.222;2023-01-24T02:17:19;8.40;;;7.60;;
75744;SDS011;64359;51.366;-0.222;2023-01-24T02:18:25;7.70;;;7.00;;
75744;SDS011;64359;51.366;-0.222;2023-01-24T02:19:36;9.00;;;8.10;;
75744;SDS011;64359;51.366;-0.222;2023-01-24T02:20:49;8.00;;;7.10;;
75744;SDS011;64359;51.366;-0.222;2023-01-24T02:21:54;7.80;;;7.10;;
75744;SDS011;64359;51.366;-0.222;2023-01-24T02:23:19;8.70;;;7.90;;
75744;SDS011;64359;51.366;-0.222;2023-01-24T02:24:31;7.50;;;6.70;;
75744;SDS011;64359;51.366;-0.222;2023-01-24T02:25:43;7.60;;;6.80;;
75744;SDS011;64359;51.366;-0.222;2023-01-24T02:26:53;7.80;;;7.10;;
75744;SDS011;64359;51.366;-0.222;2023-01-24T02:27:58;8.20;;;7.50;;
75744;SDS011;64359;51.366;-0.222;2023-01-24T02:29:05;7.50;;;6.80;;
75744;SDS011;64359;51.366;-0.222;2023-01-24T02:30:13;7.40;;;6.70;;
75744;SDS011;64359;51.366;-0.222;2023-01-24T02:31:17;7.40;;;6.70;;
75744;SDS011;64359;51.366;-0.222;2023-01-24T02:32:22;6.60;;;6.00;;
75744;SDS011;64359;51.366;-0.222;2023-01-24T02:33:27;7.30;;;6.60;;
75744;SDS011;64359;51.366;-0.222;2023-01-24T02:34:32;7.90;;;7.10;;
75744;SDS011;64359;51.366;-0.222;2023-01-24T02:35:37;7.60;;;6.90;;
75744;SDS011;64359;51.366;-0.222;2023-01-24T02:36:41;8.20;;;7.30;;
75744;SDS011;64359;51.366;-0.222;2023-01-24T02:37:46;8.00;;;7.30;;
75744;SDS011;64359;51.366;-0.222;2023-01-24T02:38:52;7.40;;;6.60;;
75744;SDS011;64359;51.366;-0.222;2023-01-24T02:40:00;7.10;;;6.40;;
75744;SDS011;64359;51.366;-0.222;2023-01-24T02:41:08;7.30;;;6.60;;
75744;SDS011;64359;51.366;-0.222;2023-01-24T02:42:14;7.00;;;6.30;;
75744;SDS011;64359;51.366;-0.222;2023-01-24T02:43:22;7.60;;;6.90;;
75744;SDS011;64359;51.366;-0.222;2023-01-24T02:44:32;6.70;;;6.00;;
75744;SDS011;64359;51.366;-0.222;2023-01-24T02:45:40;7.20;;;6.50;;
75744;SDS011;64359;51.366;-0.222;2023-01-24T02:46:44;7.20;;;6.60;;
75744;SDS011;64359;51.366;-0.222;2023-01-24T02:47:49;7.70;;;7.00;;
75744;SDS011;64359;51.366;-0.222;2023-01-24T02:48:55;7.90;;;7.20;;
75744;SDS011;64359;51.366;-0.222;2023-01-24T02:50:00;6.90;;;6.30;;
75744;SDS011;64359;51.366;-0.222;2023-01-24T02:51:05;7.00;;;6.30;;
75744;SDS011;64359;51.366;-0.222;2023-01-24T02:52:27;7.20;;;6.20;;
75744;SDS011;64359;51.366;-0.222;2023-01-24T02:53:49;6.10;;;5.50;;
75744;SDS011;64359;51.366;-0.222;2023-01-24T02:54:53;7.60;;;6.90;;
75744;SDS011;64359;51.366;-0.222;2023-01-24T02:55:58;6.70;;;5.90;;
75744;SDS011;64359;51.366;-0.222;2023-01-24T02:57:21;6.20;;;5.60;;
75744;SDS011;64359;51.366;-0.222;2023-01-24T02:58:43;6.70;;;6.10;;
75744;SDS011;64359;51.366;-0.222;2023-01-24T02:59:48;7.10;;;6.40;;
75744;SDS011;64359;51.366;-0.222;2023-01-24T03:00:52;7.50;;;6.70;;
75744;SDS011;64359;51.366;-0.222;2023-01-24T03:01:56;7.20;;;6.50;;
75744;SDS011;64359;51.366;-0.222;2023-01-24T03:03:01;6.90;;;6.20;;
75744;SDS011;64359;51.366;-0.222;2023-01-24T03:04:05;7.60;;;6.90;;
75744;SDS011;64359;51.366;-0.222;2023-01-24T03:05:11;7.30;;;6.50;;
75744;SDS011;64359;51.366;-0.222;2023-01-24T03:06:16;7.10;;;6.40;;
75744;SDS011;64359;51.366;-0.222;2023-01-24T03:07:21;7.40;;;6.80;;
75744;SDS011;64359;51.366;-0.222;2023-01-24T03:08:26;6.70;;;5.80;;
75744;SDS011;64359;51.366;-0.222;2023-01-24T03:09:32;7.20;;;6.60;;
75744;SDS011;64359;51.366;-0.222;2023-01-24T03:10:37;6.70;;;5.80;;
75744;SDS011;64359;51.366;-0.222;2023-01-24T03:11:41;7.50;;;6.80;;
75744;SDS011;64359;51.366;-0.222;2023-01-24T03:12:45;6.80;;;6.10;;
75744;SDS011;64359;51.366;-0.222;2023-01-24T03:14:07;7.70;;;7.00;;
75744;SDS011;64359;51.366;-0.222;2023-01-24T03:15:29;6.70;;;5.90;;
75744;SDS011;64359;51.366;-0.222;2023-01-24T03:18:11;6.40;;;5.40;;
75744;SDS011;64359;51.366;-0.222;2023-01-24T03:19:34;6.60;;;5.90;;
75744;SDS011;64359;51.366;-0.222;2023-01-24T03:22:16;6.00;;;5.40;;
75744;SDS011;64359;51.366;-0.222;2023-01-24T03:23:38;7.20;;;6.50;;
75744;SDS011;64359;51.366;-0.222;2023-01-24T03:27:41;6.40;;;5.80;;
75744;SDS011;64359;51.366;-0.222;2023-01-24T03:29:03;6.50;;;5.90;;
75744;SDS011;64359;51.366;-0.222;2023-01-24T03:30:25;6.30;;;5.70;;
75744;SDS011;64359;51.366;-0.222;2023-01-24T03:31:47;6.20;;;5.30;;
75744;SDS011;64359;51.366;-0.222;2023-01-24T03:34:29;5.90;;;5.30;;
75744;SDS011;64359;51.366;-0.222;2023-01-24T03:35:34;7.30;;;6.60;;
75744;SDS011;64359;51.366;-0.222;2023-01-24T03:36:38;6.30;;;5.70;;
75744;SDS011;64359;51.366;-0.222;2023-01-24T03:37:42;6.70;;;6.10;;
75744;SDS011;64359;51.366;-0.222;2023-01-24T03:39:04;6.60;;;6.00;;
75744;SDS011;64359;51.366;-0.222;2023-01-24T03:41:29;7.10;;;6.40;;
75744;SDS011;64359;51.366;-0.222;2023-01-24T03:42:34;6.00;;;5.50;;
75744;SDS011;64359;51.366;-0.222;2023-01-24T03:43:49;7.70;;;6.60;;
75744;SDS011;64359;51.366;-0.222;2023-01-24T03:44:53;7.00;;;6.40;;
75744;SDS011;64359;51.366;-0.222;2023-01-24T03:45:57;7.00;;;6.30;;
75744;SDS011;64359;51.366;-0.222;2023-01-24T03:47:02;7.60;;;6.90;;
75744;SDS011;64359;51.366;-0.222;2023-01-24T03:48:07;6.60;;;5.90;;
75744;SDS011;64359;51.366;-0.222;2023-01-24T03:49:14;6.90;;;6.30;;
75744;SDS011;64359;51.366;-0.222;2023-01-24T03:50:18;6.80;;;6.10;;
75744;SDS011;64359;51.366;-0.222;2023-01-24T03:51:40;6.70;;;6.00;;
75744;SDS011;64359;51.366;-0.222;2023-01-24T03:54:08;6.30;;;5.70;;
75744;SDS011;64359;51.366;-0.222;2023-01-24T03:55:13;7.10;;;6.40;;
75744;SDS011;64359;51.366;-0.222;2023-01-24T03:56:17;7.20;;;6.60;;
75744;SDS011;64359;51.366;-0.222;2023-01-24T03:57:22;6.30;;;5.60;;
75744;SDS011;64359;51.366;-0.222;2023-01-24T03:58:28;6.50;;;5.90;;
75744;SDS011;64359;51.366;-0.222;2023-01-24T03:59:33;6.70;;;6.10;;
75744;SDS011;64359;51.366;-0.222;2023-01-24T04:00:38;5.90;;;5.30;;
75744;SDS011;64359;51.366;-0.222;2023-01-24T04:01:43;7.60;;;6.90;;
75744;SDS011;64359;51.366;-0.222;2023-01-24T04:02:47;5.80;;;5.20;;
75744;SDS011;64359;51.366;-0.222;2023-01-24T04:03:52;5.90;;;5.40;;
75744;SDS011;64359;51.366;-0.222;2023-01-24T04:04:56;6.70;;;6.10;;
75744;SDS011;64359;51.366;-0.222;2023-01-24T04:06:17;6.80;;;6.30;;
75744;SDS011;64359;51.366;-0.222;2023-01-24T04:07:21;6.10;;;5.50;;
75744;SDS011;64359;51.366;-0.222;2023-01-24T04:08:26;6.10;;;5.60;;
75744;SDS011;64359;51.366;-0.222;2023-01-24T04:09:31;6.60;;;6.00;;
75744;SDS011;64359;51.366;-0.222;2023-01-24T04:10:36;6.60;;;6.00;;
75744;SDS011;64359;51.366;-0.222;2023-01-24T04:11:40;7.40;;;6.70;;
75744;SDS011;64359;51.366;-0.222;2023-01-24T04:12:45;6.90;;;6.00;;
75744;SDS011;64359;51.366;-0.222;2023-01-24T04:13:50;6.70;;;6.10;;
75744;SDS011;64359;51.366;-0.222;2023-01-24T04:14:54;7.10;;;6.20;;
75744;SDS011;64359;51.366;-0.222;2023-01-24T04:15:59;5.70;;;5.20;;
75744;SDS011;64359;51.366;-0.222;2023-01-24T04:17:03;5.90;;;5.40;;
75744;SDS011;64359;51.366;-0.222;2023-01-24T04:18:08;7.10;;;6.40;;
75744;SDS011;64359;51.366;-0.222;2023-01-24T04:19:13;6.20;;;5.60;;
75744;SDS011;64359;51.366;-0.222;2023-01-24T04:20:17;6.10;;;5.50;;
75744;SDS011;64359;51.366;-0.222;2023-01-24T04:21:22;5.60;;;5.10;;
75744;SDS011;64359;51.366;-0.222;2023-01-24T04:22:27;6.60;;;6.00;;
75744;SDS011;64359;51.366;-0.222;2023-01-24T04:23:32;6.40;;;5.80;;
75744;SDS011;64359;51.366;-0.222;2023-01-24T04:24:36;6.70;;;5.30;;
75744;SDS011;64359;51.366;-0.222;2023-01-24T04:25:41;6.70;;;5.40;;
75744;SDS011;64359;51.366;-0.222;2023-01-24T04:26:55;5.80;;;5.20;;
75744;SDS011;64359;51.366;-0.222;2023-01-24T04:28:00;6.30;;;5.70;;
75744;SDS011;64359;51.366;-0.222;2023-01-24T04:29:05;5.90;;;5.40;;
75744;SDS011;64359;51.366;-0.222;2023-01-24T04:30:11;7.40;;;6.60;;
75744;SDS011;64359;51.366;-0.222;2023-01-24T04:31:17;6.40;;;5.80;;
75744;SDS011;64359;51.366;-0.222;2023-01-24T04:32:22;5.60;;;5.10;;
75744;SDS011;64359;51.366;-0.222;2023-01-24T04:33:27;5.60;;;5.10;;
75744;SDS011;64359;51.366;-0.222;2023-01-24T04:34:31;6.40;;;5.60;;
75744;SDS011;64359;51.366;-0.222;2023-01-24T04:35:35;5.60;;;5.10;;
75744;SDS011;64359;51.366;-0.222;2023-01-24T04:36:40;5.70;;;5.20;;
75744;SDS011;64359;51.366;-0.222;2023-01-24T04:37:44;6.00;;;5.50;;
75744;SDS011;64359;51.366;-0.222;2023-01-24T04:38:48;4.90;;;4.50;;
75744;SDS011;64359;51.366;-0.222;2023-01-24T04:39:53;6.20;;;5.70;;
75744;SDS011;64359;51.366;-0.222;2023-01-24T04:40:58;5.20;;;4.80;;
75744;SDS011;64359;51.366;-0.222;2023-01-24T04:42:03;6.30;;;5.80;;
75744;SDS011;64359;51.366;-0.222;2023-01-24T04:43:08;5.00;;;4.60;;
75744;SDS011;64359;51.366;-0.222;2023-01-24T04:44:13;5.10;;;4.70;;
75744;SDS011;64359;51.366;-0.222;2023-01-24T04:45:17;5.80;;;5.20;;
75744;SDS011;64359;51.366;-0.222;2023-01-24T04:46:21;5.90;;;5.30;;
75744;SDS011;64359;51.366;-0.222;2023-01-24T04:47:26;4.90;;;4.50;;
75744;SDS011;64359;51.366;-0.222;2023-01-24T04:48:30;4.40;;;4.00;;
75744;SDS011;64359;51.366;-0.222;2023-01-24T04:49:35;5.10;;;4.70;;
75744;SDS011;64359;51.366;-0.222;2023-01-24T04:50:39;5.50;;;5.00;;
75744;SDS011;64359;51.366;-0.222;2023-01-24T04:51:43;4.70;;;4.30;;
75744;SDS011;64359;51.366;-0.222;2023-01-24T04:52:49;4.90;;;4.40;;
75744;SDS011;64359;51.366;-0.222;2023-01-24T04:53:53;4.70;;;4.30;;
75744;SDS011;64359;51.366;-0.222;2023-01-24T04:54:57;5.00;;;4.50;;
75744;SDS011;64359;51.366;-0.222;2023-01-24T04:56:02;4.70;;;4.30;;
75744;SDS011;64359;51.366;-0.222;2023-01-24T04:57:07;4.40;;;4.00;;
75744;SDS011;64359;51.366;-0.222;2023-01-24T04:58:13;4.80;;;4.40;;
75744;SDS011;64359;51.366;-0.222;2023-01-24T04:59:17;4.30;;;3.90;;
75744;SDS011;64359;51.366;-0.222;2023-01-24T05:00:22;5.20;;;4.70;;
75744;SDS011;64359;51.366;-0.222;2023-01-24T05:01:26;3.90;;;3.60;;
75744;SDS011;64359;51.366;-0.222;2023-01-24T05:02:30;4.20;;;3.90;;
75744;SDS011;64359;51.366;-0.222;2023-01-24T05:03:35;4.60;;;4.20;;
75744;SDS011;64359;51.366;-0.222;2023-01-24T05:04:39;4.10;;;3.80;;
75744;SDS011;64359;51.366;-0.222;2023-01-24T05:05:48;4.70;;;4.30;;
75744;SDS011;64359;51.366;-0.222;2023-01-24T05:06:52;4.00;;;3.60;;
75744;SDS011;64359;51.366;-0.222;2023-01-24T05:07:57;4.60;;;4.20;;
75744;SDS011;64359;51.366;-0.222;2023-01-24T05:09:02;3.80;;;3.50;;
75744;SDS011;64359;51.366;-0.222;2023-01-24T05:10:07;4.50;;;4.10;;
75744;SDS011;64359;51.366;-0.222;2023-01-24T05:11:12;3.70;;;3.40;;
75744;SDS011;64359;51.366;-0.222;2023-01-24T05:12:17;4.80;;;4.40;;
75744;SDS011;64359;51.366;-0.222;2023-01-24T05:13:21;3.70;;;3.40;;
75744;SDS011;64359;51.366;-0.222;2023-01-24T05:14:25;3.50;;;3.20;;
75744;SDS011;64359;51.366;-0.222;2023-01-24T05:15:30;3.70;;;3.40;;
75744;SDS011;64359;51.366;-0.222;2023-01-24T05:16:35;3.90;;;3.60;;
75744;SDS011;64359;51.366;-0.222;2023-01-24T05:17:40;3.70;;;3.30;;
75744;SDS011;64359;51.366;-0.222;2023-01-24T05:18:46;3.50;;;3.20;;
75744;SDS011;64359;51.366;-0.222;2023-01-24T05:19:51;3.60;;;3.30;;
75744;SDS011;64359;51.366;-0.222;2023-01-24T05:20:55;3.80;;;3.40;;
75744;SDS011;64359;51.366;-0.222;2023-01-24T05:22:06;3.50;;;3.20;;
75744;SDS011;64359;51.366;-0.222;2023-01-24T05:23:10;3.70;;;3.40;;
75744;SDS011;64359;51.366;-0.222;2023-01-24T05:24:15;3.70;;;3.40;;
75744;SDS011;64359;51.366;-0.222;2023-01-24T05:25:19;3.60;;;3.30;;
75744;SDS011;64359;51.366;-0.222;2023-01-24T05:26:25;3.80;;;3.50;;
75744;SDS011;64359;51.366;-0.222;2023-01-24T05:27:29;4.10;;;3.80;;
75744;SDS011;64359;51.366;-0.222;2023-01-24T05:28:34;3.70;;;3.40;;
75744;SDS011;64359;51.366;-0.222;2023-01-24T05:29:38;3.90;;;3.60;;
75744;SDS011;64359;51.366;-0.222;2023-01-24T05:30:43;3.80;;;3.40;;
75744;SDS011;64359;51.366;-0.222;2023-01-24T05:31:47;2.90;;;2.70;;
75744;SDS011;64359;51.366;-0.222;2023-01-24T05:32:51;3.20;;;3.00;;
75744;SDS011;64359;51.366;-0.222;2023-01-24T05:33:59;3.50;;;3.20;;
75744;SDS011;64359;51.366;-0.222;2023-01-24T05:35:04;3.20;;;2.60;;
75744;SDS011;64359;51.366;-0.222;2023-01-24T05:36:11;3.00;;;2.70;;
75744;SDS011;64359;51.366;-0.222;2023-01-24T05:37:16;3.60;;;3.30;;
75744;SDS011;64359;51.366;-0.222;2023-01-24T05:38:21;3.80;;;3.40;;
75744;SDS011;64359;51.366;-0.222;2023-01-24T05:39:25;3.10;;;2.90;;
75744;SDS011;64359;51.366;-0.222;2023-01-24T05:40:29;2.70;;;2.50;;
75744;SDS011;64359;51.366;-0.222;2023-01-24T05:41:34;4.40;;;4.00;;
75744;SDS011;64359;51.366;-0.222;2023-01-24T05:42:38;3.40;;;3.20;;
75744;SDS011;64359;51.366;-0.222;2023-01-24T05:43:44;3.00;;;2.80;;
75744;SDS011;64359;51.366;-0.222;2023-01-24T05:44:49;3.60;;;3.30;;
75744;SDS011;64359;51.366;-0.222;2023-01-24T05:45:57;3.00;;;2.80;;
75744;SDS011;64359;51.366;-0.222;2023-01-24T05:47:02;3.00;;;2.80;;
75744;SDS011;64359;51.366;-0.222;2023-01-24T05:48:06;3.30;;;3.00;;
75744;SDS011;64359;51.366;-0.222;2023-01-24T05:49:11;3.00;;;2.80;;
75744;SDS011;64359;51.366;-0.222;2023-01-24T05:50:16;2.70;;;2.50;;
75744;SDS011;64359;51.366;-0.222;2023-01-24T05:51:20;3.10;;;2.90;;
75744;SDS011;64359;51.366;-0.222;2023-01-24T05:52:25;2.70;;;2.50;;
75744;SDS011;64359;51.366;-0.222;2023-01-24T05:53:30;2.50;;;2.30;;
75744;SDS011;64359;51.366;-0.222;2023-01-24T05:54:37;2.90;;;2.70;;
75744;SDS011;64359;51.366;-0.222;2023-01-24T05:55:41;2.70;;;2.50;;
75744;SDS011;64359;51.366;-0.222;2023-01-24T05:56:46;3.20;;;3.00;;
75744;SDS011;64359;51.366;-0.222;2023-01-24T05:57:50;3.40;;;3.10;;
75744;SDS011;64359;51.366;-0.222;2023-01-24T05:58:54;3.00;;;2.70;;
75744;SDS011;64359;51.366;-0.222;2023-01-24T06:00:03;2.70;;;2.50;;
75744;SDS011;64359;51.366;-0.222;2023-01-24T06:01:08;3.10;;;2.90;;
75744;SDS011;64359;51.366;-0.222;2023-01-24T06:02:14;2.70;;;2.50;;
75744;SDS011;64359;51.366;-0.222;2023-01-24T06:03:20;2.70;;;2.50;;
75744;SDS011;64359;51.366;-0.222;2023-01-24T06:04:25;2.60;;;2.40;;
75744;SDS011;64359;51.366;-0.222;2023-01-24T06:05:29;3.00;;;2.80;;
75744;SDS011;64359;51.366;-0.222;2023-01-24T06:06:34;3.20;;;2.50;;
75744;SDS011;64359;51.366;-0.222;2023-01-24T06:07:38;2.80;;;2.60;;
75744;SDS011;64359;51.366;-0.222;2023-01-24T06:08:43;2.60;;;2.40;;
75744;SDS011;64359;51.366;-0.222;2023-01-24T06:09:48;2.50;;;2.30;;
75744;SDS011;64359;51.366;-0.222;2023-01-24T06:10:52;2.60;;;2.40;;
75744;SDS011;64359;51.366;-0.222;2023-01-24T06:11:56;4.00;;;3.10;;
75744;SDS011;64359;51.366;-0.222;2023-01-24T06:13:01;3.20;;;2.90;;
75744;SDS011;64359;51.366;-0.222;2023-01-24T06:14:05;2.90;;;2.60;;
75744;SDS011;64359;51.366;-0.222;2023-01-24T06:15:10;3.20;;;2.90;;
75744;SDS011;64359;51.366;-0.222;2023-01-24T06:16:15;2.50;;;2.30;;
75744;SDS011;64359;51.366;-0.222;2023-01-24T06:17:20;2.80;;;2.50;;
75744;SDS011;64359;51.366;-0.222;2023-01-24T06:18:25;3.50;;;3.20;;
75744;SDS011;64359;51.366;-0.222;2023-01-24T06:19:30;2.50;;;2.30;;
75744;SDS011;64359;51.366;-0.222;2023-01-24T06:20:35;3.10;;;2.90;;
75744;SDS011;64359;51.366;-0.222;2023-01-24T06:21:43;3.40;;;2.40;;
75744;SDS011;64359;51.366;-0.222;2023-01-24T06:22:52;4.20;;;2.60;;
75744;SDS011;64359;51.366;-0.222;2023-01-24T06:23:59;2.70;;;2.50;;
75744;SDS011;64359;51.366;-0.222;2023-01-24T06:25:09;6.40;;;2.70;;
75744;SDS011;64359;51.366;-0.222;2023-01-24T06:26:19;2.80;;;2.50;;
75744;SDS011;64359;51.366;-0.222;2023-01-24T06:27:25;2.30;;;2.20;;
75744;SDS011;64359;51.366;-0.222;2023-01-24T06:28:30;2.10;;;2.00;;
75744;SDS011;64359;51.366;-0.222;2023-01-24T06:29:35;3.70;;;2.70;;
75744;SDS011;64359;51.366;-0.222;2023-01-24T06:30:40;2.70;;;2.50;;
75744;SDS011;64359;51.366;-0.222;2023-01-24T06:31:54;3.60;;;2.30;;
75744;SDS011;64359;51.366;-0.222;2023-01-24T06:33:11;2.30;;;2.10;;
75744;SDS011;64359;51.366;-0.222;2023-01-24T06:34:28;2.90;;;2.70;;
75744;SDS011;64359;51.366;-0.222;2023-01-24T06:36:02;2.90;;;2.50;;
75744;SDS011;64359;51.366;-0.222;2023-01-24T06:37:22;3.00;;;2.70;;
75744;SDS011;64359;51.366;-0.222;2023-01-24T06:38:31;2.20;;;2.10;;
75744;SDS011;64359;51.366;-0.222;2023-01-24T06:39:36;2.30;;;2.10;;
75744;SDS011;64359;51.366;-0.222;2023-01-24T06:40:52;3.50;;;2.60;;
75744;SDS011;64359;51.366;-0.222;2023-01-24T06:42:00;2.60;;;2.40;;
75744;SDS011;64359;51.366;-0.222;2023-01-24T06:43:06;2.50;;;2.30;;
75744;SDS011;64359;51.366;-0.222;2023-01-24T06:44:12;3.10;;;2.90;;
75744;SDS011;64359;51.366;-0.222;2023-01-24T06:45:17;3.00;;;2.80;;